sensor_id;sensor_type;location;lat;lon;timestamp;temperature;humidity
56076;DHT22;41951;49.022;12.066;2023-02-28T00:00:27;-0.90;99.90
56076;DHT22;41951;49.022;12.066;2023-02-28T00:02:53;-0.80;99.90
56076;DHT22;41951;49.022;12.066;2023-02-28T00:05:21;-0.80;99.90
56076;DHT22;41951;49.022;12.066;2023-02-28T00:07:48;-0.80;99.90
56076;DHT22;41951;49.022;12.066;2023-02-28T00:10:19;-0.90;99.90
56076;DHT22;41951;49.022;12.066;2023-02-28T00:12:50;-0.80;99.90
56076;DHT22;41951;49.022;12.066;2023-02-28T00:15:16;-0.90;99.90
56076;DHT22;41951;49.022;12.066;2023-02-28T00:17:42;-0.90;99.90
56076;DHT22;41951;49.022;12.066;2023-02-28T00:20:09;-0.90;99.90
56076;DHT22;41951;49.022;12.066;2023-02-28T00:22:43;-0.90;99.90
56076;DHT22;41951;49.022;12.066;2023-02-28T00:25:10;-0.90;99.90
56076;DHT22;41951;49.022;12.066;2023-02-28T00:27:37;-0.90;99.90
56076;DHT22;41951;49.022;12.066;2023-02-28T00:30:05;-0.90;99.90
56076;DHT22;41951;49.022;12.066;2023-02-28T00:32:30;-1.00;99.90
56076;DHT22;41951;49.022;12.066;2023-02-28T00:34:56;-0.90;99.90
56076;DHT22;41951;49.022;12.066;2023-02-28T00:37:22;-1.00;99.90
56076;DHT22;41951;49.022;12.066;2023-02-28T00:39:47;-1.00;99.90
56076;DHT22;41951;49.022;12.066;2023-02-28T00:42:13;-1.00;99.90
56076;DHT22;41951;49.022;12.066;2023-02-28T00:44:38;-1.00;99.90
56076;DHT22;41951;49.022;12.066;2023-02-28T00:47:04;-1.00;99.90
56076;DHT22;41951;49.022;12.066;2023-02-28T00:49:30;-1.00;99.90
56076;DHT22;41951;49.022;12.066;2023-02-28T00:51:55;-1.00;99.90
56076;DHT22;41951;49.022;12.066;2023-02-28T00:54:22;-1.00;99.90
56076;DHT22;41951;49.022;12.066;2023-02-28T00:56:48;-1.00;99.90
56076;DHT22;41951;49.022;12.066;2023-02-28T00:59:14;-1.00;99.90
56076;DHT22;41951;49.022;12.066;2023-02-28T01:01:40;-1.00;99.90
56076;DHT22;41951;49.022;12.066;2023-02-28T01:04:06;-1.00;99.90
56076;DHT22;41951;49.022;12.066;2023-02-28T01:06:32;-1.00;99.90
56076;DHT22;41951;49.022;12.066;2023-02-28T01:08:59;-1.10;99.90
56076;DHT22;41951;49.022;12.066;2023-02-28T01:11:24;-1.00;99.90
56076;DHT22;41951;49.022;12.066;2023-02-28T01:13:50;-1.10;99.90
56076;DHT22;41951;49.022;12.066;2023-02-28T01:16:16;-1.10;99.90
56076;DHT22;41951;49.022;12.066;2023-02-28T01:18:42;-1.10;99.90
56076;DHT22;41951;49.022;12.066;2023-02-28T01:21:14;-1.00;99.90
56076;DHT22;41951;49.022;12.066;2023-02-28T01:23:41;-1.10;99.90
56076;DHT22;41951;49.022;12.066;2023-02-28T01:26:15;-1.10;99.90
56076;DHT22;41951;49.022;12.066;2023-02-28T01:28:42;-1.10;99.90
56076;DHT22;41951;49.022;12.066;2023-02-28T01:31:08;-1.10;99.90
56076;DHT22;41951;49.022;12.066;2023-02-28T01:33:34;-1.20;99.90
56076;DHT22;41951;49.022;12.066;2023-02-28T01:36:04;-1.20;99.90
56076;DHT22;41951;49.022;12.066;2023-02-28T01:38:30;-1.10;99.90
56076;DHT22;41951;49.022;12.066;2023-02-28T01:40:55;-1.20;99.90
56076;DHT22;41951;49.022;12.066;2023-02-28T01:43:22;-1.10;99.90
56076;DHT22;41951;49.022;12.066;2023-02-28T01:45:49;-1.10;99.90
56076;DHT22;41951;49.022;12.066;2023-02-28T01:48:14;-1.10;99.90
56076;DHT22;41951;49.022;12.066;2023-02-28T01:50:43;-1.20;99.90
56076;DHT22;41951;49.022;12.066;2023-02-28T01:53:13;-1.20;99.90
56076;DHT22;41951;49.022;12.066;2023-02-28T01:55:40;-1.20;99.90
56076;DHT22;41951;49.022;12.066;2023-02-28T01:58:08;-1.20;99.90
56076;DHT22;41951;49.022;12.066;2023-02-28T02:00:35;-1.30;99.90
56076;DHT22;41951;49.022;12.066;2023-02-28T02:03:06;-1.20;99.90
56076;DHT22;41951;49.022;12.066;2023-02-28T02:05:36;-1.20;99.90
56076;DHT22;41951;49.022;12.066;2023-02-28T02:08:11;-1.30;99.90
56076;DHT22;41951;49.022;12.066;2023-02-28T02:10:44;-1.30;99.90
56076;DHT22;41951;49.022;12.066;2023-02-28T02:13:28;-1.30;99.90
56076;DHT22;41951;49.022;12.066;2023-02-28T02:18:52;-1.40;99.90
56076;DHT22;41951;49.022;12.066;2023-02-28T02:33:13;-1.40;99.90
56076;DHT22;41951;49.022;12.066;2023-02-28T02:38:51;-1.30;99.90
56076;DHT22;41951;49.022;12.066;2023-02-28T02:41:36;-1.30;99.90
56076;DHT22;41951;49.022;12.066;2023-02-28T02:46:40;-1.30;99.90
56076;DHT22;41951;49.022;12.066;2023-02-28T02:49:09;-1.30;99.90
56076;DHT22;41951;49.022;12.066;2023-02-28T02:51:38;-1.30;99.90
56076;DHT22;41951;49.022;12.066;2023-02-28T02:54:09;-1.40;99.90
56076;DHT22;41951;49.022;12.066;2023-02-28T02:56:39;-1.40;99.90
56076;DHT22;41951;49.022;12.066;2023-02-28T02:59:08;-1.30;99.90
56076;DHT22;41951;49.022;12.066;2023-02-28T03:01:35;-1.40;99.90
56076;DHT22;41951;49.022;12.066;2023-02-28T03:04:15;-1.30;99.90
56076;DHT22;41951;49.022;12.066;2023-02-28T03:06:41;-1.30;99.90
56076;DHT22;41951;49.022;12.066;2023-02-28T03:09:07;-1.30;99.90
56076;DHT22;41951;49.022;12.066;2023-02-28T03:11:35;-1.30;99.90
56076;DHT22;41951;49.022;12.066;2023-02-28T03:14:25;-1.30;99.90
56076;DHT22;41951;49.022;12.066;2023-02-28T03:17:17;-1.30;99.90
56076;DHT22;41951;49.022;12.066;2023-02-28T03:19:54;-1.30;99.90
56076;DHT22;41951;49.022;12.066;2023-02-28T03:22:33;-1.40;99.90
56076;DHT22;41951;49.022;12.066;2023-02-28T03:27:54;-1.30;99.90
56076;DHT22;41951;49.022;12.066;2023-02-28T03:33:03;-1.40;99.90
56076;DHT22;41951;49.022;12.066;2023-02-28T03:35:35;-1.40;99.90
56076;DHT22;41951;49.022;12.066;2023-02-28T03:38:20;-1.40;99.90
56076;DHT22;41951;49.022;12.066;2023-02-28T03:40:54;-1.40;99.90
56076;DHT22;41951;49.022;12.066;2023-02-28T03:43:29;-1.40;99.90
56076;DHT22;41951;49.022;12.066;2023-02-28T03:45:56;-1.40;99.90
56076;DHT22;41951;49.022;12.066;2023-02-28T03:48:33;-1.40;99.90
56076;DHT22;41951;49.022;12.066;2023-02-28T03:51:02;-1.40;99.90
56076;DHT22;41951;49.022;12.066;2023-02-28T03:53:40;-1.40;99.90
56076;DHT22;41951;49.022;12.066;2023-02-28T03:56:16;-1.40;99.90
56076;DHT22;41951;49.022;12.066;2023-02-28T03:59:16;-1.40;99.90
56076;DHT22;41951;49.022;12.066;2023-02-28T04:01:46;-1.40;99.90
56076;DHT22;41951;49.022;12.066;2023-02-28T04:04:13;-1.40;99.90
56076;DHT22;41951;49.022;12.066;2023-02-28T04:06:40;-1.40;99.90
56076;DHT22;41951;49.022;12.066;2023-02-28T04:09:07;-1.40;99.90
56076;DHT22;41951;49.022;12.066;2023-02-28T04:11:45;-1.40;99.90
56076;DHT22;41951;49.022;12.066;2023-02-28T04:14:11;-1.40;99.90
56076;DHT22;41951;49.022;12.066;2023-02-28T04:16:40;-1.40;99.90
56076;DHT22;41951;49.022;12.066;2023-02-28T04:19:08;-1.40;99.90
56076;DHT22;41951;49.022;12.066;2023-02-28T04:21:36;-1.30;99.90
56076;DHT22;41951;49.022;12.066;2023-02-28T04:24:04;-1.30;99.90
56076;DHT22;41951;49.022;12.066;2023-02-28T04:26:31;-1.30;99.90
56076;DHT22;41951;49.022;12.066;2023-02-28T04:28:57;-1.30;99.90
56076;DHT22;41951;49.022;12.066;2023-02-28T04:31:23;-1.30;99.90
56076;DHT22;41951;49.022;12.066;2023-02-28T04:33:48;-1.30;99.90
56076;DHT22;41951;49.022;12.066;2023-02-28T04:36:14;-1.30;99.90
56076;DHT22;41951;49.022;12.066;2023-02-28T04:38:40;-1.30;99.90
56076;DHT22;41951;49.022;12.066;2023-02-28T04:41:06;-1.30;99.90
56076;DHT22;41951;49.022;12.066;2023-02-28T04:43:32;-1.40;99.90
56076;DHT22;41951;49.022;12.066;2023-02-28T04:46:00;-1.40;99.90
56076;DHT22;41951;49.022;12.066;2023-02-28T04:48:28;-1.40;99.90
56076;DHT22;41951;49.022;12.066;2023-02-28T04:50:54;-1.40;99.90
56076;DHT22;41951;49.022;12.066;2023-02-28T04:53:20;-1.30;99.90
56076;DHT22;41951;49.022;12.066;2023-02-28T04:55:46;-1.30;99.90
56076;DHT22;41951;49.022;12.066;2023-02-28T04:58:12;-1.30;99.90
56076;DHT22;41951;49.022;12.066;2023-02-28T05:00:38;-1.30;99.90
56076;DHT22;41951;49.022;12.066;2023-02-28T05:03:03;-1.30;99.90
56076;DHT22;41951;49.022;12.066;2023-02-28T05:05:29;-1.30;99.90
56076;DHT22;41951;49.022;12.066;2023-02-28T05:07:55;-1.30;99.90
56076;DHT22;41951;49.022;12.066;2023-02-28T05:10:24;-1.40;99.90
56076;DHT22;41951;49.022;12.066;2023-02-28T05:12:49;-1.30;99.90
56076;DHT22;41951;49.022;12.066;2023-02-28T05:15:16;-1.30;99.90
56076;DHT22;41951;49.022;12.066;2023-02-28T05:17:42;-1.30;99.90
56076;DHT22;41951;49.022;12.066;2023-02-28T05:20:09;-1.30;99.90
56076;DHT22;41951;49.022;12.066;2023-02-28T05:22:36;-1.40;99.90
56076;DHT22;41951;49.022;12.066;2023-02-28T05:25:03;-1.40;99.90
56076;DHT22;41951;49.022;12.066;2023-02-28T05:27:30;-1.30;99.90
56076;DHT22;41951;49.022;12.066;2023-02-28T05:29:56;-1.30;99.90
56076;DHT22;41951;49.022;12.066;2023-02-28T05:32:22;-1.30;99.90
56076;DHT22;41951;49.022;12.066;2023-02-28T05:34:47;-1.30;99.90
56076;DHT22;41951;49.022;12.066;2023-02-28T05:37:13;-1.30;99.90
56076;DHT22;41951;49.022;12.066;2023-02-28T05:39:40;-1.30;99.90
56076;DHT22;41951;49.022;12.066;2023-02-28T05:42:05;-1.30;99.90
56076;DHT22;41951;49.022;12.066;2023-02-28T05:44:32;-1.30;99.90
56076;DHT22;41951;49.022;12.066;2023-02-28T05:46:57;-1.30;99.90
56076;DHT22;41951;49.022;12.066;2023-02-28T05:49:23;-1.30;99.90
56076;DHT22;41951;49.022;12.066;2023-02-28T05:51:48;-1.30;99.90
56076;DHT22;41951;49.022;12.066;2023-02-28T05:54:14;-1.30;99.90
56076;DHT22;41951;49.022;12.066;2023-02-28T05:56:40;-1.30;99.90
56076;DHT22;41951;49.022;12.066;2023-02-28T05:59:09;-1.30;99.90
56076;DHT22;41951;49.022;12.066;2023-02-28T06:01:43;-1.30;99.90
56076;DHT22;41951;49.022;12.066;2023-02-28T06:04:17;-1.30;99.90
56076;DHT22;41951;49.022;12.066;2023-02-28T06:06:49;-1.20;99.90
56076;DHT22;41951;49.022;12.066;2023-02-28T06:09:15;-1.20;99.90
56076;DHT22;41951;49.022;12.066;2023-02-28T06:11:41;-1.30;99.90
56076;DHT22;41951;49.022;12.066;2023-02-28T06:14:09;-1.20;99.90
56076;DHT22;41951;49.022;12.066;2023-02-28T06:16:37;-1.20;99.90
56076;DHT22;41951;49.022;12.066;2023-02-28T06:19:04;-1.20;99.90
56076;DHT22;41951;49.022;12.066;2023-02-28T06:21:30;-1.20;99.90
56076;DHT22;41951;49.022;12.066;2023-02-28T06:23:57;-1.20;99.90
56076;DHT22;41951;49.022;12.066;2023-02-28T06:26:23;-1.20;99.90
56076;DHT22;41951;49.022;12.066;2023-02-28T06:28:49;-1.10;99.90
56076;DHT22;41951;49.022;12.066;2023-02-28T06:31:17;-1.10;99.90
56076;DHT22;41951;49.022;12.066;2023-02-28T06:33:44;-1.10;99.90
56076;DHT22;41951;49.022;12.066;2023-02-28T06:36:13;-1.10;99.90
56076;DHT22;41951;49.022;12.066;2023-02-28T06:38:40;-1.10;99.90
56076;DHT22;41951;49.022;12.066;2023-02-28T06:41:07;-1.00;99.90
56076;DHT22;41951;49.022;12.066;2023-02-28T06:43:37;-1.00;99.90
56076;DHT22;41951;49.022;12.066;2023-02-28T06:46:07;-1.00;99.90
56076;DHT22;41951;49.022;12.066;2023-02-28T06:48:34;-1.00;99.90
56076;DHT22;41951;49.022;12.066;2023-02-28T06:51:05;-1.00;99.90
56076;DHT22;41951;49.022;12.066;2023-02-28T06:53:31;-1.00;99.90
56076;DHT22;41951;49.022;12.066;2023-02-28T06:55:56;-0.90;99.90
56076;DHT22;41951;49.022;12.066;2023-02-28T06:58:22;-0.90;99.90
56076;DHT22;41951;49.022;12.066;2023-02-28T07:00:50;-0.80;99.90
56076;DHT22;41951;49.022;12.066;2023-02-28T07:03:16;-0.80;99.90
56076;DHT22;41951;49.022;12.066;2023-02-28T07:05:43;-0.80;99.90
56076;DHT22;41951;49.022;12.066;2023-02-28T07:08:08;-0.80;99.90
56076;DHT22;41951;49.022;12.066;2023-02-28T07:10:34;-0.70;99.90
56076;DHT22;41951;49.022;12.066;2023-02-28T07:13:04;-0.70;99.90
56076;DHT22;41951;49.022;12.066;2023-02-28T07:15:29;-0.60;99.90
56076;DHT22;41951;49.022;12.066;2023-02-28T07:17:55;-0.60;99.90
56076;DHT22;41951;49.022;12.066;2023-02-28T07:20:22;-0.50;99.90
56076;DHT22;41951;49.022;12.066;2023-02-28T07:22:49;-0.50;99.90
56076;DHT22;41951;49.022;12.066;2023-02-28T07:25:22;-0.60;99.90
56076;DHT22;41951;49.022;12.066;2023-02-28T07:27:47;-0.50;99.90
56076;DHT22;41951;49.022;12.066;2023-02-28T07:30:13;-0.40;99.90
56076;DHT22;41951;49.022;12.066;2023-02-28T07:32:40;-0.40;99.90
56076;DHT22;41951;49.022;12.066;2023-02-28T07:35:06;-0.40;99.90
56076;DHT22;41951;49.022;12.066;2023-02-28T07:37:31;-0.30;99.90
56076;DHT22;41951;49.022;12.066;2023-02-28T07:40:05;-0.20;99.90
56076;DHT22;41951;49.022;12.066;2023-02-28T07:42:34;-0.20;99.90
56076;DHT22;41951;49.022;12.066;2023-02-28T07:44:59;-0.20;99.90
56076;DHT22;41951;49.022;12.066;2023-02-28T07:47:25;-0.10;99.90
56076;DHT22;41951;49.022;12.066;2023-02-28T07:49:51;-0.10;99.90
56076;DHT22;41951;49.022;12.066;2023-02-28T07:52:16;-0.10;99.90
56076;DHT22;41951;49.022;12.066;2023-02-28T07:54:42;0.00;99.90
56076;DHT22;41951;49.022;12.066;2023-02-28T07:57:07;0.00;99.90
56076;DHT22;41951;49.022;12.066;2023-02-28T07:59:33;0.00;99.90
56076;DHT22;41951;49.022;12.066;2023-02-28T08:01:58;0.10;99.90
56076;DHT22;41951;49.022;12.066;2023-02-28T08:04:24;0.10;99.90
56076;DHT22;41951;49.022;12.066;2023-02-28T08:06:50;0.20;99.90
56076;DHT22;41951;49.022;12.066;2023-02-28T08:09:18;0.20;99.90
56076;DHT22;41951;49.022;12.066;2023-02-28T08:11:44;0.30;99.90
56076;DHT22;41951;49.022;12.066;2023-02-28T08:14:09;0.30;99.90
56076;DHT22;41951;49.022;12.066;2023-02-28T08:16:35;0.30;99.90
56076;DHT22;41951;49.022;12.066;2023-02-28T08:19:01;0.30;99.90
56076;DHT22;41951;49.022;12.066;2023-02-28T08:21:26;0.40;99.90
56076;DHT22;41951;49.022;12.066;2023-02-28T08:23:52;0.50;99.90
56076;DHT22;41951;49.022;12.066;2023-02-28T08:26:18;0.60;99.90
56076;DHT22;41951;49.022;12.066;2023-02-28T08:28:44;0.60;99.90
56076;DHT22;41951;49.022;12.066;2023-02-28T08:31:11;0.70;99.90
56076;DHT22;41951;49.022;12.066;2023-02-28T08:33:39;0.80;99.90
56076;DHT22;41951;49.022;12.066;2023-02-28T08:36:06;0.80;99.90
56076;DHT22;41951;49.022;12.066;2023-02-28T08:38:32;0.90;99.90
56076;DHT22;41951;49.022;12.066;2023-02-28T08:41:04;0.90;99.90
56076;DHT22;41951;49.022;12.066;2023-02-28T08:43:32;0.90;99.90
56076;DHT22;41951;49.022;12.066;2023-02-28T08:45:59;1.00;99.90
56076;DHT22;41951;49.022;12.066;2023-02-28T08:48:28;1.00;99.90
56076;DHT22;41951;49.022;12.066;2023-02-28T08:51:06;1.00;99.90
56076;DHT22;41951;49.022;12.066;2023-02-28T08:53:32;1.00;99.90
56076;DHT22;41951;49.022;12.066;2023-02-28T08:55:58;1.10;99.90
56076;DHT22;41951;49.022;12.066;2023-02-28T08:58:24;1.30;99.90
56076;DHT22;41951;49.022;12.066;2023-02-28T09:00:50;1.40;99.90
56076;DHT22;41951;49.022;12.066;2023-02-28T09:03:16;1.40;99.90
56076;DHT22;41951;49.022;12.066;2023-02-28T09:06:00;1.40;99.90
56076;DHT22;41951;49.022;12.066;2023-02-28T09:08:28;1.50;99.90
56076;DHT22;41951;49.022;12.066;2023-02-28T09:10:54;1.50;99.90
56076;DHT22;41951;49.022;12.066;2023-02-28T09:13:22;1.60;99.90
56076;DHT22;41951;49.022;12.066;2023-02-28T09:15:48;1.60;99.90
56076;DHT22;41951;49.022;12.066;2023-02-28T09:18:14;1.80;99.90
56076;DHT22;41951;49.022;12.066;2023-02-28T09:20:41;1.80;99.90
56076;DHT22;41951;49.022;12.066;2023-02-28T09:23:08;1.80;99.90
56076;DHT22;41951;49.022;12.066;2023-02-28T09:25:34;1.90;99.90
56076;DHT22;41951;49.022;12.066;2023-02-28T09:28:00;1.80;99.90
56076;DHT22;41951;49.022;12.066;2023-02-28T09:30:26;1.90;99.90
56076;DHT22;41951;49.022;12.066;2023-02-28T09:32:51;1.90;99.90
56076;DHT22;41951;49.022;12.066;2023-02-28T09:35:21;2.00;99.90
56076;DHT22;41951;49.022;12.066;2023-02-28T09:37:51;2.10;99.90
56076;DHT22;41951;49.022;12.066;2023-02-28T09:40:22;2.00;99.90
56076;DHT22;41951;49.022;12.066;2023-02-28T09:42:51;2.00;99.90
56076;DHT22;41951;49.022;12.066;2023-02-28T09:45:29;2.00;99.90
56076;DHT22;41951;49.022;12.066;2023-02-28T09:48:02;2.10;99.90
56076;DHT22;41951;49.022;12.066;2023-02-28T09:50:35;2.10;99.90
56076;DHT22;41951;49.022;12.066;2023-02-28T09:53:35;2.10;99.90
56076;DHT22;41951;49.022;12.066;2023-02-28T09:56:21;2.20;99.90
56076;DHT22;41951;49.022;12.066;2023-02-28T09:58:59;2.20;99.90
56076;DHT22;41951;49.022;12.066;2023-02-28T10:01:43;2.10;99.90
56076;DHT22;41951;49.022;12.066;2023-02-28T10:06:48;2.20;99.90
56076;DHT22;41951;49.022;12.066;2023-02-28T10:09:26;2.20;99.90
56076;DHT22;41951;49.022;12.066;2023-02-28T10:11:57;2.30;99.90
56076;DHT22;41951;49.022;12.066;2023-02-28T10:14:26;2.40;99.90
56076;DHT22;41951;49.022;12.066;2023-02-28T10:16:59;2.40;99.90
56076;DHT22;41951;49.022;12.066;2023-02-28T10:19:51;2.50;99.90
56076;DHT22;41951;49.022;12.066;2023-02-28T10:22:33;2.50;99.90
56076;DHT22;41951;49.022;12.066;2023-02-28T10:25:16;2.50;99.90
56076;DHT22;41951;49.022;12.066;2023-02-28T10:27:42;2.60;99.90
56076;DHT22;41951;49.022;12.066;2023-02-28T10:30:10;2.60;99.90
56076;DHT22;41951;49.022;12.066;2023-02-28T10:32:38;2.70;99.90
56076;DHT22;41951;49.022;12.066;2023-02-28T10:37:42;2.80;99.90
56076;DHT22;41951;49.022;12.066;2023-02-28T10:40:34;2.80;99.90
56076;DHT22;41951;49.022;12.066;2023-02-28T10:43:05;2.80;99.90
56076;DHT22;41951;49.022;12.066;2023-02-28T10:45:33;2.80;99.90
56076;DHT22;41951;49.022;12.066;2023-02-28T10:58:26;3.00;99.90
56076;DHT22;41951;49.022;12.066;2023-02-28T11:00:52;2.90;99.90
56076;DHT22;41951;49.022;12.066;2023-02-28T11:03:30;2.90;99.90
56076;DHT22;41951;49.022;12.066;2023-02-28T11:05:57;3.00;99.90
56076;DHT22;41951;49.022;12.066;2023-02-28T11:08:26;2.90;99.90
56076;DHT22;41951;49.022;12.066;2023-02-28T11:11:03;3.00;99.90
56076;DHT22;41951;49.022;12.066;2023-02-28T11:13:35;3.10;99.90
56076;DHT22;41951;49.022;12.066;2023-02-28T11:16:04;3.20;99.90
56076;DHT22;41951;49.022;12.066;2023-02-28T11:18:53;3.20;99.90
56076;DHT22;41951;49.022;12.066;2023-02-28T11:21:30;3.20;99.90
56076;DHT22;41951;49.022;12.066;2023-02-28T11:24:48;3.30;99.90
56076;DHT22;41951;49.022;12.066;2023-02-28T11:26:48;3.30;99.90
56076;DHT22;41951;49.022;12.066;2023-02-28T11:29:20;3.40;99.90
56076;DHT22;41951;49.022;12.066;2023-02-28T11:34:37;3.20;99.90
56076;DHT22;41951;49.022;12.066;2023-02-28T11:37:05;3.30;99.90
56076;DHT22;41951;49.022;12.066;2023-02-28T11:39:32;3.30;99.90
56076;DHT22;41951;49.022;12.066;2023-02-28T11:45:01;3.40;99.90
56076;DHT22;41951;49.022;12.066;2023-02-28T11:53:01;3.60;99.90
56076;DHT22;41951;49.022;12.066;2023-02-28T11:55:43;3.70;99.90
56076;DHT22;41951;49.022;12.066;2023-02-28T11:58:21;3.80;99.90
56076;DHT22;41951;49.022;12.066;2023-02-28T12:06:45;4.10;99.90
56076;DHT22;41951;49.022;12.066;2023-02-28T12:09:50;4.20;99.90
56076;DHT22;41951;49.022;12.066;2023-02-28T12:17:31;4.20;99.90
56076;DHT22;41951;49.022;12.066;2023-02-28T12:25:55;4.40;99.90
56076;DHT22;41951;49.022;12.066;2023-02-28T12:28:28;4.50;99.90
56076;DHT22;41951;49.022;12.066;2023-02-28T12:31:15;4.60;99.90
56076;DHT22;41951;49.022;12.066;2023-02-28T12:33:50;4.70;99.90
56076;DHT22;41951;49.022;12.066;2023-02-28T12:36:18;4.80;99.90
56076;DHT22;41951;49.022;12.066;2023-02-28T12:39:08;4.90;99.90
56076;DHT22;41951;49.022;12.066;2023-02-28T12:41:57;5.10;99.90
56076;DHT22;41951;49.022;12.066;2023-02-28T12:44:35;5.30;99.90
56076;DHT22;41951;49.022;12.066;2023-02-28T12:47:08;5.10;99.90
56076;DHT22;41951;49.022;12.066;2023-02-28T12:50:01;5.20;99.90
56076;DHT22;41951;49.022;12.066;2023-02-28T12:53:13;5.30;99.90
56076;DHT22;41951;49.022;12.066;2023-02-28T12:58:03;5.50;99.70
56076;DHT22;41951;49.022;12.066;2023-02-28T13:00:38;5.40;99.80
56076;DHT22;41951;49.022;12.066;2023-02-28T13:03:17;5.60;99.90
56076;DHT22;41951;49.022;12.066;2023-02-28T13:11:32;5.90;99.20
56076;DHT22;41951;49.022;12.066;2023-02-28T13:14:00;5.90;98.30
56076;DHT22;41951;49.022;12.066;2023-02-28T13:16:27;6.00;98.50
56076;DHT22;41951;49.022;12.066;2023-02-28T13:19:08;5.80;98.30
56076;DHT22;41951;49.022;12.066;2023-02-28T13:21:42;5.90;97.80
56076;DHT22;41951;49.022;12.066;2023-02-28T13:24:08;6.10;97.50
56076;DHT22;41951;49.022;12.066;2023-02-28T13:34:34;6.30;97.60
56076;DHT22;41951;49.022;12.066;2023-02-28T13:39:47;6.20;97.00
56076;DHT22;41951;49.022;12.066;2023-02-28T13:42:34;6.10;96.80
56076;DHT22;41951;49.022;12.066;2023-02-28T13:47:35;6.20;97.20
56076;DHT22;41951;49.022;12.066;2023-02-28T13:50:35;6.20;97.10
56076;DHT22;41951;49.022;12.066;2023-02-28T13:55:37;6.30;96.40
56076;DHT22;41951;49.022;12.066;2023-02-28T13:58:34;6.30;96.50
56076;DHT22;41951;49.022;12.066;2023-02-28T14:06:27;7.00;95.90
56076;DHT22;41951;49.022;12.066;2023-02-28T14:09:00;7.00;95.50
56076;DHT22;41951;49.022;12.066;2023-02-28T14:11:32;7.20;94.60
56076;DHT22;41951;49.022;12.066;2023-02-28T14:13:58;7.20;94.30
56076;DHT22;41951;49.022;12.066;2023-02-28T14:16:35;7.40;94.80
56076;DHT22;41951;49.022;12.066;2023-02-28T14:19:09;7.80;94.90
56076;DHT22;41951;49.022;12.066;2023-02-28T14:21:39;8.20;94.00
56076;DHT22;41951;49.022;12.066;2023-02-28T14:37:51;6.30;92.00
56076;DHT22;41951;49.022;12.066;2023-02-28T14:42:58;5.20;95.00
56076;DHT22;41951;49.022;12.066;2023-02-28T14:45:28;5.10;95.90
56076;DHT22;41951;49.022;12.066;2023-02-28T14:47:56;5.00;96.30
56076;DHT22;41951;49.022;12.066;2023-02-28T14:50:26;4.80;97.00
56076;DHT22;41951;49.022;12.066;2023-02-28T14:52:53;4.70;96.40
56076;DHT22;41951;49.022;12.066;2023-02-28T14:55:45;4.60;97.50
56076;DHT22;41951;49.022;12.066;2023-02-28T15:00:54;4.50;98.20
56076;DHT22;41951;49.022;12.066;2023-02-28T15:05:58;4.40;99.20
56076;DHT22;41951;49.022;12.066;2023-02-28T15:08:25;4.40;99.00
56076;DHT22;41951;49.022;12.066;2023-02-28T15:10:56;4.40;99.20
56076;DHT22;41951;49.022;12.066;2023-02-28T15:13:24;4.30;99.80
56076;DHT22;41951;49.022;12.066;2023-02-28T15:16:03;4.30;99.40
56076;DHT22;41951;49.022;12.066;2023-02-28T15:21:21;4.20;99.90
56076;DHT22;41951;49.022;12.066;2023-02-28T15:23:57;4.30;99.90
56076;DHT22;41951;49.022;12.066;2023-02-28T15:26:42;4.20;99.90
56076;DHT22;41951;49.022;12.066;2023-02-28T15:29:20;4.20;99.90
56076;DHT22;41951;49.022;12.066;2023-02-28T15:32:17;4.10;99.90
56076;DHT22;41951;49.022;12.066;2023-02-28T15:34:37;4.00;99.90
56076;DHT22;41951;49.022;12.066;2023-02-28T15:42:41;4.00;99.90
56076;DHT22;41951;49.022;12.066;2023-02-28T15:45:32;4.00;99.90
56076;DHT22;41951;49.022;12.066;2023-02-28T15:48:02;4.00;99.90
56076;DHT22;41951;49.022;12.066;2023-02-28T15:50:28;3.80;99.90
56076;DHT22;41951;49.022;12.066;2023-02-28T15:52:55;3.90;99.90
56076;DHT22;41951;49.022;12.066;2023-02-28T15:55:23;3.70;99.90
56076;DHT22;41951;49.022;12.066;2023-02-28T15:58:01;3.80;99.90
56076;DHT22;41951;49.022;12.066;2023-02-28T16:00:29;3.80;99.90
56076;DHT22;41951;49.022;12.066;2023-02-28T16:02:58;3.60;99.90
56076;DHT22;41951;49.022;12.066;2023-02-28T16:05:29;3.60;99.90
56076;DHT22;41951;49.022;12.066;2023-02-28T16:08:00;3.60;99.90
56076;DHT22;41951;49.022;12.066;2023-02-28T16:10:27;3.50;99.90
56076;DHT22;41951;49.022;12.066;2023-02-28T16:12:57;3.40;99.90
56076;DHT22;41951;49.022;12.066;2023-02-28T16:15:24;3.40;99.90
56076;DHT22;41951;49.022;12.066;2023-02-28T16:17:51;3.40;99.90
56076;DHT22;41951;49.022;12.066;2023-02-28T16:20:26;3.30;99.90
56076;DHT22;41951;49.022;12.066;2023-02-28T16:22:53;3.30;99.90
56076;DHT22;41951;49.022;12.066;2023-02-28T16:25:26;3.20;99.90
56076;DHT22;41951;49.022;12.066;2023-02-28T16:27:55;3.20;99.90
56076;DHT22;41951;49.022;12.066;2023-02-28T16:30:27;3.20;99.90
56076;DHT22;41951;49.022;12.066;2023-02-28T16:32:54;3.10;99.90
56076;DHT22;41951;49.022;12.066;2023-02-28T16:35:21;3.10;99.90
56076;DHT22;41951;49.022;12.066;2023-02-28T16:37:47;3.10;99.90
56076;DHT22;41951;49.022;12.066;2023-02-28T16:40:19;3.00;99.90
56076;DHT22;41951;49.022;12.066;2023-02-28T16:42:47;3.00;99.90
56076;DHT22;41951;49.022;12.066;2023-02-28T16:45:23;3.10;99.90
56076;DHT22;41951;49.022;12.066;2023-02-28T16:47:49;3.00;99.90
56076;DHT22;41951;49.022;12.066;2023-02-28T16:50:17;3.00;99.90
56076;DHT22;41951;49.022;12.066;2023-02-28T16:52:43;2.90;99.90
56076;DHT22;41951;49.022;12.066;2023-02-28T16:55:10;2.90;99.90
56076;DHT22;41951;49.022;12.066;2023-02-28T16:57:35;2.90;99.90
56076;DHT22;41951;49.022;12.066;2023-02-28T17:00:02;2.90;99.90
56076;DHT22;41951;49.022;12.066;2023-02-28T17:02:28;2.90;99.90
56076;DHT22;41951;49.022;12.066;2023-02-28T17:04:54;2.90;99.90
56076;DHT22;41951;49.022;12.066;2023-02-28T17:07:19;2.80;99.90
56076;DHT22;41951;49.022;12.066;2023-02-28T17:09:45;2.80;99.90
56076;DHT22;41951;49.022;12.066;2023-02-28T17:12:10;2.80;99.90
56076;DHT22;41951;49.022;12.066;2023-02-28T17:14:37;2.80;99.90
56076;DHT22;41951;49.022;12.066;2023-02-28T17:17:05;2.80;99.90
56076;DHT22;41951;49.022;12.066;2023-02-28T17:19:30;2.80;99.90
56076;DHT22;41951;49.022;12.066;2023-02-28T17:21:56;2.70;99.90
56076;DHT22;41951;49.022;12.066;2023-02-28T17:24:21;2.70;99.90
56076;DHT22;41951;49.022;12.066;2023-02-28T17:26:47;2.70;99.90
56076;DHT22;41951;49.022;12.066;2023-02-28T17:29:20;2.70;99.90
56076;DHT22;41951;49.022;12.066;2023-02-28T17:31:46;2.80;99.90
56076;DHT22;41951;49.022;12.066;2023-02-28T17:34:12;2.80;99.90
56076;DHT22;41951;49.022;12.066;2023-02-28T17:36:46;2.70;99.90
56076;DHT22;41951;49.022;12.066;2023-02-28T17:39:13;2.70;99.90
56076;DHT22;41951;49.022;12.066;2023-02-28T17:41:41;2.70;99.90
56076;DHT22;41951;49.022;12.066;2023-02-28T17:44:07;2.70;99.90
56076;DHT22;41951;49.022;12.066;2023-02-28T17:46:35;2.60;99.90
56076;DHT22;41951;49.022;12.066;2023-02-28T17:49:01;2.70;99.90